sensor_id;sensor_type;location;lat;lon;timestamp;temperature;humidity
25300;DHT22;13241;51.208;4.432;2023-04-07T00:00:49;9.70;99.90
25300;DHT22;13241;51.208;4.432;2023-04-07T00:03:15;9.70;99.90
25300;DHT22;13241;51.208;4.432;2023-04-07T00:05:43;9.60;99.90
25300;DHT22;13241;51.208;4.432;2023-04-07T00:08:10;9.60;99.90
25300;DHT22;13241;51.208;4.432;2023-04-07T00:10:36;9.60;99.90
25300;DHT22;13241;51.208;4.432;2023-04-07T00:13:03;9.60;99.90
25300;DHT22;13241;51.208;4.432;2023-04-07T00:15:30;9.50;99.90
25300;DHT22;13241;51.208;4.432;2023-04-07T00:17:57;9.40;99.90
25300;DHT22;13241;51.208;4.432;2023-04-07T00:20:24;9.40;99.90
25300;DHT22;13241;51.208;4.432;2023-04-07T00:22:51;9.40;99.90
25300;DHT22;13241;51.208;4.432;2023-04-07T00:25:18;9.40;99.90
25300;DHT22;13241;51.208;4.432;2023-04-07T00:27:45;9.30;99.90
25300;DHT22;13241;51.208;4.432;2023-04-07T00:30:12;9.40;99.90
25300;DHT22;13241;51.208;4.432;2023-04-07T00:32:38;9.30;99.90
25300;DHT22;13241;51.208;4.432;2023-04-07T00:35:06;9.30;99.90
25300;DHT22;13241;51.208;4.432;2023-04-07T00:37:33;9.30;99.90
25300;DHT22;13241;51.208;4.432;2023-04-07T00:40:00;9.30;99.90
25300;DHT22;13241;51.208;4.432;2023-04-07T00:42:27;9.30;99.90
25300;DHT22;13241;51.208;4.432;2023-04-07T00:44:54;9.30;99.90
25300;DHT22;13241;51.208;4.432;2023-04-07T00:47:21;9.20;99.90
25300;DHT22;13241;51.208;4.432;2023-04-07T00:49:47;9.30;99.90
25300;DHT22;13241;51.208;4.432;2023-04-07T00:52:14;9.40;99.90
25300;DHT22;13241;51.208;4.432;2023-04-07T00:54:43;9.30;99.90
25300;DHT22;13241;51.208;4.432;2023-04-07T00:57:12;9.30;99.90
25300;DHT22;13241;51.208;4.432;2023-04-07T00:59:39;9.30;99.90
25300;DHT22;13241;51.208;4.432;2023-04-07T01:02:31;9.20;99.90
25300;DHT22;13241;51.208;4.432;2023-04-07T01:05:16;9.20;99.90
25300;DHT22;13241;51.208;4.432;2023-04-07T01:07:59;9.20;99.90
25300;DHT22;13241;51.208;4.432;2023-04-07T01:10:51;9.20;99.90
25300;DHT22;13241;51.208;4.432;2023-04-07T01:13:30;9.20;99.90
25300;DHT22;13241;51.208;4.432;2023-04-07T01:16:12;9.20;99.90
25300;DHT22;13241;51.208;4.432;2023-04-07T01:18:47;9.20;99.90
25300;DHT22;13241;51.208;4.432;2023-04-07T01:21:17;9.20;99.90
25300;DHT22;13241;51.208;4.432;2023-04-07T01:24:02;9.20;99.90
25300;DHT22;13241;51.208;4.432;2023-04-07T01:26:32;9.30;99.90
25300;DHT22;13241;51.208;4.432;2023-04-07T01:31:33;9.30;99.90
25300;DHT22;13241;51.208;4.432;2023-04-07T01:34:02;9.20;99.90
25300;DHT22;13241;51.208;4.432;2023-04-07T01:36:30;9.20;99.90
25300;DHT22;13241;51.208;4.432;2023-04-07T01:38:59;9.20;99.90
25300;DHT22;13241;51.208;4.432;2023-04-07T01:41:27;9.20;99.90
25300;DHT22;13241;51.208;4.432;2023-04-07T01:43:55;9.20;99.90
25300;DHT22;13241;51.208;4.432;2023-04-07T01:46:23;9.20;99.90
25300;DHT22;13241;51.208;4.432;2023-04-07T01:48:50;9.20;99.90
25300;DHT22;13241;51.208;4.432;2023-04-07T01:51:20;9.20;99.90
25300;DHT22;13241;51.208;4.432;2023-04-07T01:53:48;9.20;99.90
25300;DHT22;13241;51.208;4.432;2023-04-07T01:56:15;9.20;99.90
25300;DHT22;13241;51.208;4.432;2023-04-07T01:58:47;9.20;99.90
25300;DHT22;13241;51.208;4.432;2023-04-07T02:01:17;9.20;99.90
25300;DHT22;13241;51.208;4.432;2023-04-07T02:06:42;9.10;99.90
25300;DHT22;13241;51.208;4.432;2023-04-07T02:09:12;9.10;99.90
25300;DHT22;13241;51.208;4.432;2023-04-07T02:11:41;9.00;99.90
25300;DHT22;13241;51.208;4.432;2023-04-07T02:14:10;9.00;99.90
25300;DHT22;13241;51.208;4.432;2023-04-07T02:16:55;9.00;99.90
25300;DHT22;13241;51.208;4.432;2023-04-07T02:19:22;8.90;99.90
25300;DHT22;13241;51.208;4.432;2023-04-07T02:21:50;8.90;99.90
25300;DHT22;13241;51.208;4.432;2023-04-07T02:24:19;9.00;99.90
25300;DHT22;13241;51.208;4.432;2023-04-07T02:26:47;9.00;99.90
25300;DHT22;13241;51.208;4.432;2023-04-07T02:29:14;9.00;99.90
25300;DHT22;13241;51.208;4.432;2023-04-07T02:31:42;9.00;99.90
25300;DHT22;13241;51.208;4.432;2023-04-07T02:34:09;9.00;99.90
25300;DHT22;13241;51.208;4.432;2023-04-07T02:36:38;9.00;99.90
25300;DHT22;13241;51.208;4.432;2023-04-07T02:39:06;8.90;99.90
25300;DHT22;13241;51.208;4.432;2023-04-07T02:41:33;8.90;99.90
25300;DHT22;13241;51.208;4.432;2023-04-07T02:44:00;8.90;99.90
25300;DHT22;13241;51.208;4.432;2023-04-07T02:46:26;8.90;99.90
25300;DHT22;13241;51.208;4.432;2023-04-07T02:48:53;8.80;99.90
25300;DHT22;13241;51.208;4.432;2023-04-07T02:51:20;8.90;99.90
25300;DHT22;13241;51.208;4.432;2023-04-07T02:53:47;8.80;99.90
25300;DHT22;13241;51.208;4.432;2023-04-07T02:56:15;8.90;99.90
25300;DHT22;13241;51.208;4.432;2023-04-07T02:58:42;8.90;99.90
25300;DHT22;13241;51.208;4.432;2023-04-07T03:01:09;8.90;99.90
25300;DHT22;13241;51.208;4.432;2023-04-07T03:03:36;8.90;99.90
25300;DHT22;13241;51.208;4.432;2023-04-07T03:06:17;8.90;99.90
25300;DHT22;13241;51.208;4.432;2023-04-07T03:08:59;8.90;99.90
25300;DHT22;13241;51.208;4.432;2023-04-07T03:11:26;9.00;99.90
25300;DHT22;13241;51.208;4.432;2023-04-07T03:13:55;9.00;99.90
25300;DHT22;13241;51.208;4.432;2023-04-07T03:16:23;9.00;99.90
25300;DHT22;13241;51.208;4.432;2023-04-07T03:19:01;8.90;99.90
25300;DHT22;13241;51.208;4.432;2023-04-07T03:21:32;8.90;99.90
25300;DHT22;13241;51.208;4.432;2023-04-07T03:23:59;8.90;99.90
25300;DHT22;13241;51.208;4.432;2023-04-07T03:26:26;9.00;99.90
25300;DHT22;13241;51.208;4.432;2023-04-07T03:28:53;8.90;99.90
25300;DHT22;13241;51.208;4.432;2023-04-07T03:31:21;8.90;99.90
25300;DHT22;13241;51.208;4.432;2023-04-07T03:33:50;8.90;99.90
25300;DHT22;13241;51.208;4.432;2023-04-07T03:36:18;8.90;99.90
25300;DHT22;13241;51.208;4.432;2023-04-07T03:38:46;8.80;99.90
25300;DHT22;13241;51.208;4.432;2023-04-07T03:41:15;8.80;99.90
25300;DHT22;13241;51.208;4.432;2023-04-07T03:43:42;8.80;99.90
25300;DHT22;13241;51.208;4.432;2023-04-07T03:46:10;8.70;99.90
25300;DHT22;13241;51.208;4.432;2023-04-07T03:48:37;8.90;99.90
25300;DHT22;13241;51.208;4.432;2023-04-07T03:51:06;8.90;99.90
25300;DHT22;13241;51.208;4.432;2023-04-07T03:53:33;8.90;99.90
25300;DHT22;13241;51.208;4.432;2023-04-07T03:56:12;8.90;99.90
25300;DHT22;13241;51.208;4.432;2023-04-07T03:58:58;8.90;99.90
25300;DHT22;13241;51.208;4.432;2023-04-07T04:01:28;8.90;99.90
25300;DHT22;13241;51.208;4.432;2023-04-07T04:04:02;8.80;99.90
25300;DHT22;13241;51.208;4.432;2023-04-07T04:06:29;8.70;99.90
25300;DHT22;13241;51.208;4.432;2023-04-07T04:09:04;8.70;99.90
25300;DHT22;13241;51.208;4.432;2023-04-07T04:11:35;8.70;99.90
25300;DHT22;13241;51.208;4.432;2023-04-07T04:14:03;8.70;99.90
25300;DHT22;13241;51.208;4.432;2023-04-07T04:16:32;8.60;99.90
25300;DHT22;13241;51.208;4.432;2023-04-07T04:19:06;8.60;99.90
25300;DHT22;13241;51.208;4.432;2023-04-07T04:21:33;8.60;99.90
25300;DHT22;13241;51.208;4.432;2023-04-07T04:24:01;8.60;99.90
25300;DHT22;13241;51.208;4.432;2023-04-07T04:26:29;8.60;99.90
25300;DHT22;13241;51.208;4.432;2023-04-07T04:29:02;8.50;99.90
25300;DHT22;13241;51.208;4.432;2023-04-07T04:31:29;8.60;99.90
25300;DHT22;13241;51.208;4.432;2023-04-07T04:33:57;8.60;99.90
25300;DHT22;13241;51.208;4.432;2023-04-07T04:36:24;8.70;99.90
25300;DHT22;13241;51.208;4.432;2023-04-07T04:38:56;8.70;99.90
25300;DHT22;13241;51.208;4.432;2023-04-07T04:41:23;8.70;99.90
25300;DHT22;13241;51.208;4.432;2023-04-07T04:43:50;8.50;99.90
25300;DHT22;13241;51.208;4.432;2023-04-07T04:46:21;8.60;99.90
25300;DHT22;13241;51.208;4.432;2023-04-07T04:48:49;8.60;99.90
25300;DHT22;13241;51.208;4.432;2023-04-07T04:51:19;8.60;99.90
25300;DHT22;13241;51.208;4.432;2023-04-07T04:53:51;8.60;99.90
25300;DHT22;13241;51.208;4.432;2023-04-07T04:56:21;8.60;99.90
25300;DHT22;13241;51.208;4.432;2023-04-07T04:58:49;8.50;99.90
25300;DHT22;13241;51.208;4.432;2023-04-07T05:01:24;8.50;99.90
25300;DHT22;13241;51.208;4.432;2023-04-07T05:03:58;8.50;99.90
25300;DHT22;13241;51.208;4.432;2023-04-07T05:06:28;8.50;99.90
25300;DHT22;13241;51.208;4.432;2023-04-07T05:08:59;8.50;99.90
25300;DHT22;13241;51.208;4.432;2023-04-07T05:11:32;8.60;99.90
25300;DHT22;13241;51.208;4.432;2023-04-07T05:13:59;8.70;99.90
25300;DHT22;13241;51.208;4.432;2023-04-07T05:16:26;8.80;99.90
25300;DHT22;13241;51.208;4.432;2023-04-07T05:18:53;8.90;99.90
25300;DHT22;13241;51.208;4.432;2023-04-07T05:21:22;9.00;99.90
25300;DHT22;13241;51.208;4.432;2023-04-07T05:23:52;9.00;99.90
25300;DHT22;13241;51.208;4.432;2023-04-07T05:26:21;8.90;99.90
25300;DHT22;13241;51.208;4.432;2023-04-07T05:28:49;9.00;99.90
25300;DHT22;13241;51.208;4.432;2023-04-07T05:31:20;9.10;99.90
25300;DHT22;13241;51.208;4.432;2023-04-07T05:33:50;9.10;99.90
25300;DHT22;13241;51.208;4.432;2023-04-07T05:36:19;9.20;99.90
25300;DHT22;13241;51.208;4.432;2023-04-07T05:38:46;9.10;99.90
25300;DHT22;13241;51.208;4.432;2023-04-07T05:41:17;9.20;99.90
25300;DHT22;13241;51.208;4.432;2023-04-07T05:43:43;9.20;99.90
25300;DHT22;13241;51.208;4.432;2023-04-07T05:46:10;9.20;99.90
25300;DHT22;13241;51.208;4.432;2023-04-07T05:48:46;9.20;99.90
25300;DHT22;13241;51.208;4.432;2023-04-07T05:51:13;9.20;99.90
25300;DHT22;13241;51.208;4.432;2023-04-07T05:53:41;9.20;99.90
25300;DHT22;13241;51.208;4.432;2023-04-07T05:56:07;9.20;99.90
25300;DHT22;13241;51.208;4.432;2023-04-07T05:58:44;9.10;99.90
25300;DHT22;13241;51.208;4.432;2023-04-07T06:01:12;9.10;99.90
25300;DHT22;13241;51.208;4.432;2023-04-07T06:03:39;9.10;99.90
25300;DHT22;13241;51.208;4.432;2023-04-07T06:06:11;9.10;99.90
25300;DHT22;13241;51.208;4.432;2023-04-07T06:08:38;9.20;99.90
25300;DHT22;13241;51.208;4.432;2023-04-07T06:11:05;9.20;99.90
25300;DHT22;13241;51.208;4.432;2023-04-07T06:13:33;9.30;99.90
25300;DHT22;13241;51.208;4.432;2023-04-07T06:15:59;9.40;99.90
25300;DHT22;13241;51.208;4.432;2023-04-07T06:18:26;9.40;99.90
25300;DHT22;13241;51.208;4.432;2023-04-07T06:20:53;9.50;99.90
25300;DHT22;13241;51.208;4.432;2023-04-07T06:23:20;9.50;99.90
25300;DHT22;13241;51.208;4.432;2023-04-07T06:25:48;9.60;99.90
25300;DHT22;13241;51.208;4.432;2023-04-07T06:28:18;9.70;99.90
25300;DHT22;13241;51.208;4.432;2023-04-07T06:30:47;9.90;99.90
25300;DHT22;13241;51.208;4.432;2023-04-07T06:33:14;9.80;99.90
25300;DHT22;13241;51.208;4.432;2023-04-07T06:35:42;9.70;99.90
25300;DHT22;13241;51.208;4.432;2023-04-07T06:38:08;9.60;99.90
25300;DHT22;13241;51.208;4.432;2023-04-07T06:40:37;9.50;99.90
25300;DHT22;13241;51.208;4.432;2023-04-07T06:43:04;9.50;99.90
25300;DHT22;13241;51.208;4.432;2023-04-07T06:45:48;9.40;99.90
25300;DHT22;13241;51.208;4.432;2023-04-07T06:48:15;9.50;99.90
25300;DHT22;13241;51.208;4.432;2023-04-07T06:50:45;9.60;99.90
25300;DHT22;13241;51.208;4.432;2023-04-07T06:53:12;9.60;99.90
25300;DHT22;13241;51.208;4.432;2023-04-07T06:55:39;9.70;99.90
25300;DHT22;13241;51.208;4.432;2023-04-07T06:58:06;9.80;99.90
25300;DHT22;13241;51.208;4.432;2023-04-07T07:00:34;9.90;99.90
25300;DHT22;13241;51.208;4.432;2023-04-07T07:03:01;10.00;99.90
25300;DHT22;13241;51.208;4.432;2023-04-07T07:05:28;10.00;99.90
25300;DHT22;13241;51.208;4.432;2023-04-07T07:07:55;10.10;99.90
25300;DHT22;13241;51.208;4.432;2023-04-07T07:10:22;10.20;99.90
25300;DHT22;13241;51.208;4.432;2023-04-07T07:12:49;10.30;99.90
25300;DHT22;13241;51.208;4.432;2023-04-07T07:15:17;10.40;99.90
25300;DHT22;13241;51.208;4.432;2023-04-07T07:17:44;10.40;99.90
25300;DHT22;13241;51.208;4.432;2023-04-07T07:20:11;10.40;99.90
25300;DHT22;13241;51.208;4.432;2023-04-07T07:22:37;10.40;99.90
25300;DHT22;13241;51.208;4.432;2023-04-07T07:25:04;10.40;99.90
25300;DHT22;13241;51.208;4.432;2023-04-07T07:27:31;10.50;99.90
25300;DHT22;13241;51.208;4.432;2023-04-07T07:29:58;10.40;99.90
25300;DHT22;13241;51.208;4.432;2023-04-07T07:32:25;10.40;99.90
25300;DHT22;13241;51.208;4.432;2023-04-07T07:34:53;10.50;99.90
25300;DHT22;13241;51.208;4.432;2023-04-07T07:37:19;10.60;99.90
25300;DHT22;13241;51.208;4.432;2023-04-07T07:39:46;10.60;99.90
25300;DHT22;13241;51.208;4.432;2023-04-07T07:42:13;10.50;99.90
25300;DHT22;13241;51.208;4.432;2023-04-07T07:44:40;10.40;99.90
25300;DHT22;13241;51.208;4.432;2023-04-07T07:47:07;10.40;99.90
25300;DHT22;13241;51.208;4.432;2023-04-07T07:49:33;10.20;99.90
25300;DHT22;13241;51.208;4.432;2023-04-07T07:52:00;10.20;99.90
25300;DHT22;13241;51.208;4.432;2023-04-07T07:54:28;10.20;99.90
25300;DHT22;13241;51.208;4.432;2023-04-07T07:56:54;10.20;99.90
25300;DHT22;13241;51.208;4.432;2023-04-07T07:59:21;10.40;99.90
25300;DHT22;13241;51.208;4.432;2023-04-07T08:01:48;10.60;99.90
25300;DHT22;13241;51.208;4.432;2023-04-07T08:04:15;10.80;99.90
25300;DHT22;13241;51.208;4.432;2023-04-07T08:06:42;10.80;99.90
25300;DHT22;13241;51.208;4.432;2023-04-07T08:09:09;10.90;99.90
25300;DHT22;13241;51.208;4.432;2023-04-07T08:11:36;10.70;99.90
25300;DHT22;13241;51.208;4.432;2023-04-07T08:14:02;10.80;99.90
25300;DHT22;13241;51.208;4.432;2023-04-07T08:16:29;10.70;99.90
25300;DHT22;13241;51.208;4.432;2023-04-07T08:18:56;10.80;99.90
25300;DHT22;13241;51.208;4.432;2023-04-07T08:21:23;10.90;99.90
25300;DHT22;13241;51.208;4.432;2023-04-07T08:23:50;10.90;99.90
25300;DHT22;13241;51.208;4.432;2023-04-07T08:26:18;10.90;99.90
25300;DHT22;13241;51.208;4.432;2023-04-07T08:28:45;10.90;99.90
25300;DHT22;13241;51.208;4.432;2023-04-07T08:31:12;11.00;99.90
25300;DHT22;13241;51.208;4.432;2023-04-07T08:33:39;11.30;99.90
25300;DHT22;13241;51.208;4.432;2023-04-07T08:36:06;11.60;99.90
25300;DHT22;13241;51.208;4.432;2023-04-07T08:38:33;11.70;99.90
25300;DHT22;13241;51.208;4.432;2023-04-07T08:41:07;11.70;99.90
25300;DHT22;13241;51.208;4.432;2023-04-07T08:43:35;11.70;99.90
25300;DHT22;13241;51.208;4.432;2023-04-07T08:46:04;11.90;99.90
25300;DHT22;13241;51.208;4.432;2023-04-07T08:48:31;11.90;99.90
25300;DHT22;13241;51.208;4.432;2023-04-07T08:51:06;11.90;99.90
25300;DHT22;13241;51.208;4.432;2023-04-07T08:53:47;11.90;99.90
25300;DHT22;13241;51.208;4.432;2023-04-07T08:56:17;12.00;99.90
25300;DHT22;13241;51.208;4.432;2023-04-07T08:58:45;12.10;99.90
25300;DHT22;13241;51.208;4.432;2023-04-07T09:01:12;12.00;99.90
25300;DHT22;13241;51.208;4.432;2023-04-07T09:03:40;12.30;99.90
25300;DHT22;13241;51.208;4.432;2023-04-07T09:06:09;12.50;99.90
25300;DHT22;13241;51.208;4.432;2023-04-07T09:08:36;11.90;99.90
25300;DHT22;13241;51.208;4.432;2023-04-07T09:11:03;11.90;99.90
25300;DHT22;13241;51.208;4.432;2023-04-07T09:13:30;11.90;99.90
25300;DHT22;13241;51.208;4.432;2023-04-07T09:16:00;12.00;99.90
25300;DHT22;13241;51.208;4.432;2023-04-07T09:18:27;12.00;99.90
25300;DHT22;13241;51.208;4.432;2023-04-07T09:20:55;11.90;99.90
25300;DHT22;13241;51.208;4.432;2023-04-07T09:25:55;12.00;99.90
25300;DHT22;13241;51.208;4.432;2023-04-07T09:28:25;11.90;99.90
25300;DHT22;13241;51.208;4.432;2023-04-07T09:31:03;11.90;99.90
25300;DHT22;13241;51.208;4.432;2023-04-07T09:33:30;11.90;99.90
25300;DHT22;13241;51.208;4.432;2023-04-07T09:35:57;11.90;99.90
25300;DHT22;13241;51.208;4.432;2023-04-07T09:38:34;11.80;99.90
25300;DHT22;13241;51.208;4.432;2023-04-07T09:41:20;11.70;99.90
25300;DHT22;13241;51.208;4.432;2023-04-07T09:43:47;11.70;99.90
25300;DHT22;13241;51.208;4.432;2023-04-07T09:46:16;11.70;99.90
25300;DHT22;13241;51.208;4.432;2023-04-07T09:48:44;11.60;99.90
25300;DHT22;13241;51.208;4.432;2023-04-07T09:51:14;11.70;99.90
25300;DHT22;13241;51.208;4.432;2023-04-07T09:53:50;11.80;99.90
25300;DHT22;13241;51.208;4.432;2023-04-07T09:56:21;11.60;99.90
25300;DHT22;13241;51.208;4.432;2023-04-07T09:58:49;11.60;99.90
25300;DHT22;13241;51.208;4.432;2023-04-07T10:01:20;11.60;99.90
25300;DHT22;13241;51.208;4.432;2023-04-07T10:03:48;11.50;99.90
25300;DHT22;13241;51.208;4.432;2023-04-07T10:06:16;11.40;99.90
25300;DHT22;13241;51.208;4.432;2023-04-07T10:08:43;11.40;99.90
25300;DHT22;13241;51.208;4.432;2023-04-07T10:11:10;11.40;99.90
25300;DHT22;13241;51.208;4.432;2023-04-07T10:13:39;11.30;99.90
25300;DHT22;13241;51.208;4.432;2023-04-07T10:18:35;11.40;99.90
25300;DHT22;13241;51.208;4.432;2023-04-07T10:21:04;11.50;99.90
25300;DHT22;13241;51.208;4.432;2023-04-07T10:26:02;11.70;99.90
25300;DHT22;13241;51.208;4.432;2023-04-07T10:28:31;11.80;99.90
25300;DHT22;13241;51.208;4.432;2023-04-07T10:30:59;12.10;99.90
25300;DHT22;13241;51.208;4.432;2023-04-07T10:33:49;12.30;99.90
25300;DHT22;13241;51.208;4.432;2023-04-07T10:36:18;12.30;99.90
25300;DHT22;13241;51.208;4.432;2023-04-07T11:40:09;12.60;99.90
25300;DHT22;13241;51.208;4.432;2023-04-07T11:42:38;12.60;99.90
25300;DHT22;13241;51.208;4.432;2023-04-07T11:45:15;12.50;99.90
25300;DHT22;13241;51.208;4.432;2023-04-07T11:47:42;12.90;99.90
25300;DHT22;13241;51.208;4.432;2023-04-07T11:55:20;12.50;99.90
25300;DHT22;13241;51.208;4.432;2023-04-07T11:57:48;12.70;99.90
25300;DHT22;13241;51.208;4.432;2023-04-07T13:09:30;12.30;99.90
25300;DHT22;13241;51.208;4.432;2023-04-07T13:43:52;11.40;99.90
25300;DHT22;13241;51.208;4.432;2023-04-07T13:46:19;11.50;99.90
25300;DHT22;13241;51.208;4.432;2023-04-07T13:48:55;11.50;99.90
25300;DHT22;13241;51.208;4.432;2023-04-07T13:51:22;11.50;99.90
25300;DHT22;13241;51.208;4.432;2023-04-07T13:53:49;11.50;99.90
25300;DHT22;13241;51.208;4.432;2023-04-07T13:56:16;11.40;99.90
25300;DHT22;13241;51.208;4.432;2023-04-07T13:58:43;11.30;99.90
25300;DHT22;13241;51.208;4.432;2023-04-07T14:01:10;11.30;99.90
25300;DHT22;13241;51.208;4.432;2023-04-07T14:03:37;11.40;99.90
25300;DHT22;13241;51.208;4.432;2023-04-07T14:06:04;11.30;99.90
25300;DHT22;13241;51.208;4.432;2023-04-07T14:08:31;11.20;99.90
25300;DHT22;13241;51.208;4.432;2023-04-07T14:10:58;11.20;99.90
25300;DHT22;13241;51.208;4.432;2023-04-07T14:13:24;11.20;99.90
25300;DHT22;13241;51.208;4.432;2023-04-07T14:15:51;11.20;99.90
25300;DHT22;13241;51.208;4.432;2023-04-07T14:18:19;11.30;99.90
25300;DHT22;13241;51.208;4.432;2023-04-07T14:20:47;11.40;99.90
25300;DHT22;13241;51.208;4.432;2023-04-07T14:23:14;11.30;99.90
25300;DHT22;13241;51.208;4.432;2023-04-07T14:25:55;11.30;99.90
25300;DHT22;13241;51.208;4.432;2023-04-07T14:28:23;11.30;99.90
25300;DHT22;13241;51.208;4.432;2023-04-07T14:30:50;11.20;99.90
25300;DHT22;13241;51.208;4.432;2023-04-07T14:33:17;11.10;99.90
25300;DHT22;13241;51.208;4.432;2023-04-07T14:35:44;11.00;99.90
25300;DHT22;13241;51.208;4.432;2023-04-07T14:38:11;11.00;99.90
25300;DHT22;13241;51.208;4.432;2023-04-07T14:40:38;11.00;99.90
25300;DHT22;13241;51.208;4.432;2023-04-07T14:43:05;11.00;99.90
25300;DHT22;13241;51.208;4.432;2023-04-07T14:45:33;11.00;99.90
25300;DHT22;13241;51.208;4.432;2023-04-07T14:48:01;10.90;99.90
25300;DHT22;13241;51.208;4.432;2023-04-07T14:50:31;10.90;99.90
25300;DHT22;13241;51.208;4.432;2023-04-07T14:52:59;10.80;99.90
25300;DHT22;13241;51.208;4.432;2023-04-07T14:55:26;10.80;99.90
25300;DHT22;13241;51.208;4.432;2023-04-07T14:57:54;10.70;99.90
25300;DHT22;13241;51.208;4.432;2023-04-07T15:00:21;10.70;99.90
25300;DHT22;13241;51.208;4.432;2023-04-07T15:02:53;10.70;99.90
25300;DHT22;13241;51.208;4.432;2023-04-07T15:05:25;10.70;99.90
25300;DHT22;13241;51.208;4.432;2023-04-07T15:07:53;10.70;99.90
25300;DHT22;13241;51.208;4.432;2023-04-07T15:10:20;10.70;99.90
25300;DHT22;13241;51.208;4.432;2023-04-07T15:12:47;10.80;99.90
25300;DHT22;13241;51.208;4.432;2023-04-07T15:15:15;10.80;99.90
25300;DHT22;13241;51.208;4.432;2023-04-07T15:17:42;10.80;99.90
25300;DHT22;13241;51.208;4.432;2023-04-07T15:20:11;10.80;99.90
25300;DHT22;13241;51.208;4.432;2023-04-07T15:22:39;10.70;99.90
25300;DHT22;13241;51.208;4.432;2023-04-07T15:25:06;10.80;99.90
25300;DHT22;13241;51.208;4.432;2023-04-07T15:27:34;10.80;99.90
25300;DHT22;13241;51.208;4.432;2023-04-07T15:30:00;10.70;99.90
25300;DHT22;13241;51.208;4.432;2023-04-07T15:32:29;10.70;99.90
25300;DHT22;13241;51.208;4.432;2023-04-07T15:34:56;10.60;99.90
25300;DHT22;13241;51.208;4.432;2023-04-07T15:37:24;10.60;99.90
25300;DHT22;13241;51.208;4.432;2023-04-07T15:39:51;10.60;99.90
25300;DHT22;13241;51.208;4.432;2023-04-07T15:42:18;10.50;99.90
25300;DHT22;13241;51.208;4.432;2023-04-07T15:44:45;10.50;99.90
25300;DHT22;13241;51.208;4.432;2023-04-07T15:47:12;10.40;99.90
25300;DHT22;13241;51.208;4.432;2023-04-07T15:49:38;10.50;99.90
25300;DHT22;13241;51.208;4.432;2023-04-07T15:52:07;10.50;99.90
25300;DHT22;13241;51.208;4.432;2023-04-07T15:54:33;10.30;99.90
25300;DHT22;13241;51.208;4.432;2023-04-07T15:57:00;10.20;99.90
25300;DHT22;13241;51.208;4.432;2023-04-07T15:59:27;10.40;99.90
25300;DHT22;13241;51.208;4.432;2023-04-07T16:01:56;10.40;99.90
25300;DHT22;13241;51.208;4.432;2023-04-07T16:04:23;10.40;99.90
25300;DHT22;13241;51.208;4.432;2023-04-07T16:06:50;10.50;99.90
25300;DHT22;13241;51.208;4.432;2023-04-07T16:09:17;10.50;99.90
25300;DHT22;13241;51.208;4.432;2023-04-07T16:11:43;10.50;99.90
25300;DHT22;13241;51.208;4.432;2023-04-07T16:14:10;10.40;99.90
25300;DHT22;13241;51.208;4.432;2023-04-07T16:16:37;10.40;99.90
25300;DHT22;13241;51.208;4.432;2023-04-07T16:19:07;10.40;99.90
25300;DHT22;13241;51.208;4.432;2023-04-07T16:21:34;10.40;99.90
25300;DHT22;13241;51.208;4.432;2023-04-07T16:24:01;10.40;99.90
25300;DHT22;13241;51.208;4.432;2023-04-07T16:26:28;10.40;99.90
25300;DHT22;13241;51.208;4.432;2023-04-07T16:28:55;10.50;99.90
25300;DHT22;13241;51.208;4.432;2023-04-07T16:31:21;10.50;99.90
25300;DHT22;13241;51.208;4.432;2023-04-07T16:33:51;10.50;99.90
25300;DHT22;13241;51.208;4.432;2023-04-07T16:36:18;10.40;99.90
25300;DHT22;13241;51.208;4.432;2023-04-07T16:38:45;10.40;99.90
25300;DHT22;13241;51.208;4.432;2023-04-07T16:41:11;10.40;99.90
25300;DHT22;13241;51.208;4.432;2023-04-07T16:43:39;10.30;99.90
25300;DHT22;13241;51.208;4.432;2023-04-07T16:46:06;10.30;99.90
25300;DHT22;13241;51.208;4.432;2023-04-07T16:48:33;10.30;99.90
25300;DHT22;13241;51.208;4.432;2023-04-07T16:51:00;10.40;99.90
25300;DHT22;13241;51.208;4.432;2023-04-07T16:53:27;10.30;99.90
25300;DHT22;13241;51.208;4.432;2023-04-07T16:55:54;10.20;99.90
25300;DHT22;13241;51.208;4.432;2023-04-07T16:58:20;10.20;99.90
25300;DHT22;13241;51.208;4.432;2023-04-07T17:00:47;10.20;99.90
25300;DHT22;13241;51.208;4.432;2023-04-07T17:03:14;10.30;99.90
25300;DHT22;13241;51.208;4.432;2023-04-07T17:05:41;10.20;99.90
25300;DHT22;13241;51.208;4.432;2023-04-07T17:08:10;10.30;99.90
25300;DHT22;13241;51.208;4.432;2023-04-07T17:10:37;10.20;99.90
25300;DHT22;13241;51.208;4.432;2023-04-07T17:13:04;10.20;99.90
25300;DHT22;13241;51.208;4.432;2023-04-07T17:15:34;10.20;99.90
25300;DHT22;13241;51.208;4.432;2023-04-07T17:18:02;10.20;99.90
25300;DHT22;13241;51.208;4.432;2023-04-07T17:20:29;10.20;99.90
25300;DHT22;13241;51.208;4.432;2023-04-07T17:22:55;10.10;99.90
25300;DHT22;13241;51.208;4.432;2023-04-07T17:25:22;10.10;99.90
25300;DHT22;13241;51.208;4.432;2023-04-07T17:27:50;10.10;99.90
25300;DHT22;13241;51.208;4.432;2023-04-07T17:30:17;10.10;99.90
25300;DHT22;13241;51.208;4.432;2023-04-07T17:32:44;10.20;99.90
25300;DHT22;13241;51.208;4.432;2023-04-07T17:35:11;10.10;99.90
25300;DHT22;13241;51.208;4.432;2023-04-07T17:37:37;10.10;99.90
25300;DHT22;13241;51.208;4.432;2023-04-07T17:40:05;10.10;99.90
25300;DHT22;13241;51.208;4.432;2023-04-07T17:42:32;10.10;99.90
25300;DHT22;13241;51.208;4.432;2023-04-07T17:44:59;10.20;99.90
25300;DHT22;13241;51.208;4.432;2023-04-07T17:47:26;10.20;99.90
25300;DHT22;13241;51.208;4.432;2023-04-07T17:49:52;10.20;99.90
25300;DHT22;13241;51.208;4.432;2023-04-07T17:52:19;10.20;99.90
25300;DHT22;13241;51.208;4.432;2023-04-07T17:54:47;10.10;99.90
25300;DHT22;13241;51.208;4.432;2023-04-07T17:57:13;10.10;99.90
25300;DHT22;13241;51.208;4.432;2023-04-07T17:59:41;10.10;99.90
25300;DHT22;13241;51.208;4.432;2023-04-07T18:02:08;10.00;99.90
25300;DHT22;13241;51.208;4.432;2023-04-07T18:04:36;10.00;99.90
25300;DHT22;13241;51.208;4.432;2023-04-07T18:07:03;10.00;99.90
25300;DHT22;13241;51.208;4.432;2023-04-07T18:09:30;10.00;99.90
25300;DHT22;13241;51.208;4.432;2023-04-07T18:11:58;10.00;99.90
25300;DHT22;13241;51.208;4.432;2023-04-07T18:14:24;9.90;99.90
25300;DHT22;13241;51.208;4.432;2023-04-07T18:16:52;10.00;99.90
25300;DHT22;13241;51.208;4.432;2023-04-07T18:19:20;9.90;99.90
25300;DHT22;13241;51.208;4.432;2023-04-07T18:21:48;9.90;99.90
25300;DHT22;13241;51.208;4.432;2023-04-07T18:24:18;9.90;99.90
25300;DHT22;13241;51.208;4.432;2023-04-07T18:26:46;9.90;99.90
25300;DHT22;13241;51.208;4.432;2023-04-07T18:29:13;9.90;99.90
25300;DHT22;13241;51.208;4.432;2023-04-07T18:31:40;9.90;99.90
25300;DHT22;13241;51.208;4.432;2023-04-07T18:34:11;9.90;99.90
25300;DHT22;13241;51.208;4.432;2023-04-07T18:36:38;9.80;99.90
25300;DHT22;13241;51.208;4.432;2023-04-07T18:39:09;9.80;99.90
25300;DHT22;13241;51.208;4.432;2023-04-07T18:41:36;9.90;99.90
25300;DHT22;13241;51.208;4.432;2023-04-07T18:44:03;9.90;99.90
25300;DHT22;13241;51.208;4.432;2023-04-07T18:46:29;9.90;99.90